Terminal Aerodrome Forecast
Issued by NWS

Home | Current Version | Previous Version | Text Only | Print | Product List | Glossary On
Versions: 1 2 3 4 5 6 7 8 9 10 11 12 13
000
FTUS45 KLKN 292320
TAFELY
TAF
KELY 292320Z 3000/3024 22010G20KT P6SM VCTS SCT100CB BKN120
     FM300200 19008KT P6SM VCTS SCT100CB BKN120
     FM300900 18008KT P6SM FEW120
     FM301800 23010KT P6SM VCTS SCT100CB BKN120=

USA.gov is the U.S. government's official web portal to all federal, state and local government web resources and services.